createdAt,value
2023-01-25T00:00:48.222Z,18.60
2023-01-25T00:03:17.369Z,20.00
2023-01-25T00:05:45.140Z,19.60
2023-01-25T00:08:12.808Z,18.73
2023-01-25T00:10:40.615Z,19.00
2023-01-25T00:13:08.301Z,17.80
2023-01-25T00:15:36.072Z,18.40
2023-01-25T00:18:03.876Z,17.33
2023-01-25T00:20:33.006Z,17.07
2023-01-25T00:23:00.782Z,17.13
2023-01-25T00:25:28.589Z,17.90
2023-01-25T00:27:56.353Z,18.63
2023-01-25T00:30:24.124Z,18.07
2023-01-25T00:32:58.824Z,19.77
2023-01-25T00:35:32.384Z,18.67
2023-01-25T00:38:03.629Z,18.30
2023-01-25T00:40:31.446Z,18.77
2023-01-25T00:43:01.087Z,22.43
2023-01-25T00:45:28.784Z,17.73
2023-01-25T00:47:57.062Z,16.83
2023-01-25T00:50:25.703Z,18.03
2023-01-25T00:52:53.658Z,14.83
2023-01-25T00:55:22.828Z,15.63
2023-01-25T00:57:50.573Z,15.97
2023-01-25T01:00:19.020Z,18.57
2023-01-25T01:02:47.802Z,19.47
2023-01-25T01:05:15.840Z,15.67
2023-01-25T01:07:44.377Z,15.67
2023-01-25T01:10:13.595Z,16.70
2023-01-25T01:12:42.700Z,17.03
2023-01-25T01:15:11.014Z,17.87
2023-01-25T01:17:39.003Z,17.60
2023-01-25T01:20:08.163Z,17.23
2023-01-25T01:22:35.992Z,16.43
2023-01-25T01:25:03.794Z,16.80
2023-01-25T01:27:31.771Z,17.07
2023-01-25T01:30:00.942Z,16.00
2023-01-25T01:32:29.010Z,16.80
2023-01-25T01:34:56.926Z,16.63
2023-01-25T01:37:24.721Z,17.30
2023-01-25T01:39:53.202Z,17.17
2023-01-25T01:42:21.065Z,17.13
2023-01-25T01:44:52.034Z,14.70
2023-01-25T01:47:26.221Z,17.27
2023-01-25T01:50:03.896Z,14.37
2023-01-25T01:52:38.319Z,18.73
2023-01-25T01:55:10.498Z,19.33
2023-01-25T01:57:44.466Z,18.13
2023-01-25T02:00:16.708Z,16.50
2023-01-25T02:02:47.619Z,16.63
2023-01-25T02:05:20.343Z,18.63
2023-01-25T02:07:50.715Z,17.90
2023-01-25T02:10:21.788Z,21.13
2023-01-25T02:12:51.877Z,17.50
2023-01-25T02:15:19.685Z,18.10
2023-01-25T02:17:50.063Z,19.23
2023-01-25T02:20:25.264Z,18.53
2023-01-25T02:23:00.851Z,19.37
2023-01-25T02:25:30.125Z,17.90
2023-01-25T02:28:10.417Z,18.13
2023-01-25T02:30:38.796Z,17.00
2023-01-25T02:33:06.586Z,17.37
2023-01-25T02:35:40.447Z,19.03
2023-01-25T02:38:09.308Z,18.20
2023-01-25T02:40:46.497Z,18.50
2023-01-25T02:43:15.052Z,18.43
2023-01-25T02:45:46.841Z,18.30
2023-01-25T02:48:14.633Z,18.47
2023-01-25T02:50:42.469Z,18.80
2023-01-25T02:53:11.995Z,18.93
2023-01-25T02:55:41.156Z,16.30
2023-01-25T02:58:09.604Z,19.53
2023-01-25T03:00:37.621Z,17.30
2023-01-25T03:03:05.470Z,17.07
2023-01-25T03:05:34.584Z,17.67
2023-01-25T03:08:02.601Z,18.57
2023-01-25T03:10:30.362Z,19.90
2023-01-25T03:13:00.418Z,19.03
2023-01-25T03:15:28.702Z,19.47
2023-01-25T03:17:56.866Z,19.10
2023-01-25T03:20:24.873Z,17.53
2023-01-25T03:22:53.116Z,18.77
2023-01-25T03:25:21.334Z,18.13
2023-01-25T03:27:58.178Z,19.67
2023-01-25T03:30:27.647Z,18.00
2023-01-25T03:32:55.703Z,20.77
2023-01-25T03:35:24.320Z,20.67
2023-01-25T03:37:52.832Z,18.87
2023-01-25T03:40:20.674Z,19.77
2023-01-25T03:42:52.185Z,21.47
2023-01-25T03:45:20.121Z,19.70
2023-01-25T03:47:49.780Z,20.37
2023-01-25T03:50:17.723Z,18.30
2023-01-25T03:53:27.384Z,18.60
2023-01-25T03:55:58.477Z,16.93
2023-01-25T03:58:27.328Z,19.67
2023-01-25T04:00:56.842Z,18.97
2023-01-25T04:03:26.625Z,19.27
2023-01-25T04:05:55.336Z,18.33
2023-01-25T04:08:24.667Z,18.00
2023-01-25T04:10:53.800Z,19.87
2023-01-25T04:13:22.404Z,17.83
2023-01-25T04:15:51.453Z,19.77
2023-01-25T04:18:41.099Z,15.90
2023-01-25T04:21:09.164Z,18.90
2023-01-25T04:23:36.905Z,17.83
2023-01-25T04:26:07.466Z,18.40
2023-01-25T04:28:36.535Z,19.13
2023-01-25T04:31:06.096Z,15.33
2023-01-25T04:33:40.931Z,19.07
2023-01-25T04:36:10.185Z,20.03
2023-01-25T04:38:39.410Z,19.03
2023-01-25T04:41:07.359Z,17.10
2023-01-25T04:43:35.403Z,17.57
2023-01-25T04:46:08.447Z,16.70
2023-01-25T04:48:36.260Z,17.27
2023-01-25T04:51:09.418Z,14.27
2023-01-25T04:53:37.404Z,15.43
2023-01-25T04:56:08.206Z,13.43
2023-01-25T04:58:44.948Z,15.00
2023-01-25T05:01:13.159Z,13.40
2023-01-25T05:03:40.955Z,16.07
2023-01-25T05:06:17.713Z,14.13
2023-01-25T05:08:45.837Z,16.67
2023-01-25T05:11:14.130Z,15.87
2023-01-25T05:13:51.960Z,16.80
2023-01-25T05:16:25.795Z,16.33
2023-01-25T05:18:55.759Z,14.97
2023-01-25T05:21:50.220Z,15.83
2023-01-25T05:24:21.624Z,14.53
2023-01-25T05:27:01.519Z,15.93
2023-01-25T05:29:38.717Z,17.93
2023-01-25T05:32:10.249Z,17.17
2023-01-25T05:34:39.966Z,16.87
2023-01-25T05:37:10.655Z,17.47
2023-01-25T05:39:42.324Z,17.53
2023-01-25T05:42:13.363Z,18.27
2023-01-25T05:44:41.395Z,16.70
2023-01-25T05:47:14.066Z,18.20
2023-01-25T05:49:42.310Z,18.53
2023-01-25T05:52:16.042Z,16.50
2023-01-25T05:54:44.732Z,18.13
2023-01-25T05:57:15.181Z,20.40
2023-01-25T05:59:43.194Z,17.77
2023-01-25T06:02:13.465Z,18.13
2023-01-25T06:04:42.139Z,18.87
2023-01-25T06:07:10.968Z,16.83
2023-01-25T06:09:40.320Z,18.30
2023-01-25T06:12:10.346Z,18.87
2023-01-25T06:14:38.146Z,18.60
2023-01-25T06:17:06.099Z,18.30
2023-01-25T06:19:56.243Z,18.53
2023-01-25T06:22:37.772Z,17.40
2023-01-25T06:25:08.413Z,20.93
2023-01-25T06:27:36.286Z,19.00
2023-01-25T06:30:04.434Z,21.77
2023-01-25T06:32:33.468Z,20.10
2023-01-25T06:35:01.247Z,20.40
2023-01-25T06:37:29.042Z,21.43
2023-01-25T06:39:57.035Z,19.37
2023-01-25T06:42:26.406Z,20.20
2023-01-25T06:44:54.105Z,19.83
2023-01-25T06:47:21.874Z,22.30
2023-01-25T06:49:49.576Z,22.53
2023-01-25T06:52:17.330Z,19.30
2023-01-25T06:54:45.156Z,20.93
2023-01-25T06:57:13.252Z,20.50
2023-01-25T06:59:42.626Z,20.57
2023-01-25T07:02:15.224Z,22.17
2023-01-25T07:04:43.148Z,21.10
2023-01-25T07:07:11.020Z,21.30
2023-01-25T07:09:38.818Z,22.00
2023-01-25T07:12:07.456Z,22.60
2023-01-25T07:14:35.410Z,19.73
2023-01-25T07:17:04.499Z,23.90
2023-01-25T07:19:32.419Z,23.60
2023-01-25T07:22:00.185Z,22.67
2023-01-25T07:24:29.468Z,23.87
2023-01-25T07:26:57.308Z,25.73
2023-01-25T07:29:25.241Z,26.40
2023-01-25T07:31:53.195Z,22.33
2023-01-25T07:34:22.695Z,23.83
2023-01-25T07:36:50.453Z,23.00
2023-01-25T07:39:18.281Z,22.87
2023-01-25T07:41:46.060Z,21.80
2023-01-25T07:44:15.196Z,21.60
2023-01-25T07:46:51.634Z,22.67
2023-01-25T07:49:19.669Z,22.23
2023-01-25T07:51:48.804Z,22.90
2023-01-25T07:54:16.586Z,22.37
2023-01-25T07:56:44.641Z,22.50
2023-01-25T07:59:12.449Z,21.47
2023-01-25T08:01:41.166Z,21.10
2023-01-25T08:04:09.689Z,23.23
2023-01-25T08:06:39.800Z,23.13
2023-01-25T08:09:12.032Z,23.30
2023-01-25T08:11:40.174Z,21.20
2023-01-25T08:14:08.416Z,21.33
2023-01-25T08:16:36.115Z,20.20
2023-01-25T08:19:04.722Z,22.07
2023-01-25T08:21:34.019Z,21.43
2023-01-25T08:24:03.864Z,21.93
2023-01-25T08:26:33.711Z,21.77
2023-01-25T08:29:01.483Z,24.80
2023-01-25T08:31:31.087Z,24.03
2023-01-25T08:33:59.705Z,24.17
2023-01-25T08:36:28.612Z,23.40
2023-01-25T08:38:58.315Z,24.77
2023-01-25T08:41:27.736Z,26.13
2023-01-25T08:43:57.919Z,25.43
2023-01-25T08:46:30.349Z,25.83
2023-01-25T08:49:01.043Z,27.17
2023-01-25T08:51:31.209Z,25.17
2023-01-25T08:54:02.514Z,27.37
2023-01-25T08:56:30.214Z,27.40
2023-01-25T08:58:59.318Z,28.80
2023-01-25T09:01:27.035Z,27.37
2023-01-25T09:03:55.361Z,28.10
2023-01-25T09:06:23.167Z,27.20
2023-01-25T09:08:51.243Z,26.53
2023-01-25T09:11:21.131Z,30.53
2023-01-25T09:13:49.420Z,30.17
2023-01-25T09:16:22.808Z,30.87
2023-01-25T09:18:51.232Z,31.97
2023-01-25T09:21:20.036Z,30.90
2023-01-25T09:23:51.498Z,35.80
2023-01-25T09:26:32.468Z,29.70
2023-01-25T09:29:00.702Z,31.87
2023-01-25T09:31:30.457Z,31.43
2023-01-25T09:34:14.200Z,32.77
2023-01-25T09:36:42.095Z,30.77
2023-01-25T09:39:12.115Z,34.57
2023-01-25T09:42:21.538Z,35.90
2023-01-25T09:45:04.183Z,33.70
2023-01-25T09:47:43.474Z,37.73
2023-01-25T09:50:27.989Z,33.33
2023-01-25T09:53:15.710Z,31.93
2023-01-25T09:55:44.210Z,34.57
2023-01-25T09:58:15.659Z,36.53
2023-01-25T10:00:47.949Z,37.20
2023-01-25T10:03:24.189Z,33.33
2023-01-25T10:05:54.673Z,34.77
2023-01-25T10:08:31.441Z,33.67
2023-01-25T10:11:05.783Z,30.33
2023-01-25T10:13:33.461Z,34.33
2023-01-25T10:16:06.519Z,36.73
2023-01-25T10:18:55.659Z,34.40
2023-01-25T10:21:29.409Z,36.30
2023-01-25T10:24:13.540Z,35.13
2023-01-25T10:26:48.020Z,34.97
2023-01-25T10:29:20.855Z,33.20
2023-01-25T10:31:51.360Z,34.87
2023-01-25T10:34:22.808Z,35.83
2023-01-25T10:36:55.992Z,35.90
2023-01-25T10:39:24.105Z,38.13
2023-01-25T10:41:56.994Z,37.90
2023-01-25T10:44:26.267Z,34.70
2023-01-25T10:47:00.641Z,34.10
2023-01-25T10:49:39.478Z,40.30
2023-01-25T10:52:15.288Z,37.70
2023-01-25T10:54:43.542Z,40.03
2023-01-25T10:57:18.308Z,37.63
2023-01-25T10:59:49.115Z,37.10
2023-01-25T11:02:39.067Z,42.27
2023-01-25T11:05:34.511Z,37.80
2023-01-25T11:08:23.269Z,40.77
2023-01-25T11:10:52.043Z,39.80
2023-01-25T11:13:27.106Z,41.00
2023-01-25T11:15:57.900Z,37.47
2023-01-25T11:18:28.526Z,39.73
2023-01-25T11:21:07.280Z,39.87
2023-01-25T11:23:35.300Z,42.20
2023-01-25T11:26:14.722Z,40.17
2023-01-25T11:28:42.867Z,39.83
2023-01-25T11:31:16.276Z,41.43
2023-01-25T11:33:44.100Z,41.23
2023-01-25T11:36:27.921Z,41.43
2023-01-25T11:39:25.351Z,49.37
2023-01-25T11:42:04.362Z,42.30
2023-01-25T11:45:03.578Z,47.50
2023-01-25T11:47:46.087Z,46.77
2023-01-25T11:50:21.224Z,45.97
2023-01-25T11:53:04.258Z,47.13
2023-01-25T11:55:38.904Z,45.17
2023-01-25T11:58:32.160Z,47.07
2023-01-25T12:01:11.926Z,44.77
2023-01-25T12:04:07.030Z,46.63
2023-01-25T12:06:48.244Z,46.67
2023-01-25T12:09:27.015Z,43.47
2023-01-25T12:12:08.686Z,49.23
2023-01-25T12:14:55.956Z,44.93
2023-01-25T12:17:34.528Z,49.40
2023-01-25T12:20:23.321Z,48.77
2023-01-25T12:23:06.918Z,48.10
2023-01-25T12:25:49.032Z,50.10
2023-01-25T12:28:23.991Z,47.03
2023-01-25T12:30:55.723Z,46.20
2023-01-25T12:33:30.370Z,46.43
2023-01-25T12:36:05.528Z,49.63
2023-01-25T12:38:38.711Z,49.47
2023-01-25T12:41:18.348Z,53.80
2023-01-25T12:43:50.412Z,49.40
2023-01-25T12:46:27.063Z,47.37
2023-01-25T12:49:00.408Z,49.57
2023-01-25T12:51:37.332Z,51.80
2023-01-25T12:54:12.861Z,53.77
2023-01-25T12:56:47.913Z,53.30
2023-01-25T12:59:22.108Z,55.00
2023-01-25T13:01:54.752Z,55.23
2023-01-25T13:04:37.987Z,58.33
2023-01-25T13:07:16.760Z,55.97
2023-01-25T13:09:53.103Z,59.20
2023-01-25T13:12:23.770Z,55.37
2023-01-25T13:14:51.924Z,57.80
2023-01-25T13:17:31.234Z,54.80
2023-01-25T13:20:00.081Z,51.97
2023-01-25T13:22:58.881Z,48.20
2023-01-25T13:25:27.520Z,47.20
2023-01-25T13:28:45.084Z,45.60
2023-01-25T13:31:53.363Z,46.90
2023-01-25T13:34:54.661Z,42.03
2023-01-25T13:37:25.572Z,43.30
2023-01-25T13:39:54.795Z,42.50
2023-01-25T13:42:25.353Z,41.83
2023-01-25T13:44:56.848Z,46.67
2023-01-25T13:47:28.167Z,45.63
2023-01-25T13:50:01.470Z,42.47
2023-01-25T13:52:32.284Z,45.10
2023-01-25T13:55:00.703Z,37.80
2023-01-25T13:57:30.824Z,42.27
2023-01-25T14:00:10.633Z,44.60
2023-01-25T14:02:40.703Z,43.03
2023-01-25T14:05:19.491Z,42.23
2023-01-25T14:07:50.084Z,44.93
2023-01-25T14:10:23.420Z,42.80
2023-01-25T14:12:52.997Z,41.63
2023-01-25T14:15:24.898Z,40.77
2023-01-25T14:18:12.252Z,43.33
2023-01-25T14:20:40.049Z,45.13
2023-01-25T14:23:21.881Z,47.33
2023-01-25T14:25:49.930Z,42.60
2023-01-25T14:28:19.101Z,38.53
2023-01-25T14:30:51.806Z,43.47
2023-01-25T14:33:22.348Z,44.20
2023-01-25T14:35:56.489Z,41.10
2023-01-25T14:38:35.949Z,40.07
2023-01-25T14:41:13.113Z,38.80
2023-01-25T14:43:43.384Z,37.30
2023-01-25T14:46:23.802Z,39.03
2023-01-25T14:48:52.807Z,37.07
2023-01-25T14:51:27.624Z,39.13
2023-01-25T14:54:01.540Z,40.50
2023-01-25T14:56:37.661Z,41.77
2023-01-25T14:59:07.284Z,39.50
2023-01-25T15:01:41.195Z,44.63
2023-01-25T15:04:13.973Z,41.33
2023-01-25T15:06:49.723Z,40.43
2023-01-25T15:09:38.972Z,45.27
2023-01-25T15:12:25.321Z,41.77
2023-01-25T15:14:55.280Z,38.73
2023-01-25T15:17:45.576Z,41.90
2023-01-25T15:20:37.879Z,44.07
2023-01-25T15:23:24.686Z,45.27
2023-01-25T15:25:56.855Z,45.13
2023-01-25T15:28:27.091Z,47.43
2023-01-25T15:30:57.562Z,40.17
2023-01-25T15:33:28.976Z,41.47
2023-01-25T15:35:57.508Z,40.37
2023-01-25T15:38:25.602Z,43.70
2023-01-25T15:40:53.539Z,38.60
2023-01-25T15:43:21.672Z,40.80
2023-01-25T15:45:51.744Z,40.57
2023-01-25T15:48:27.372Z,41.93
2023-01-25T15:50:57.474Z,45.90
2023-01-25T15:53:25.957Z,39.90
2023-01-25T15:55:56.878Z,41.70
2023-01-25T15:58:28.578Z,40.63
2023-01-25T16:00:56.420Z,45.30
2023-01-25T16:03:24.830Z,44.10
2023-01-25T16:05:58.220Z,45.73
2023-01-25T16:08:29.105Z,44.40
2023-01-25T16:10:57.090Z,39.07
2023-01-25T16:13:24.940Z,41.60
2023-01-25T16:15:57.869Z,41.87
2023-01-25T16:18:25.580Z,44.10
2023-01-25T16:20:53.391Z,43.03
2023-01-25T16:23:22.459Z,41.00
2023-01-25T16:25:53.343Z,50.77
2023-01-25T16:28:21.057Z,45.80
2023-01-25T16:30:49.807Z,40.30
2023-01-25T16:33:17.518Z,45.07
2023-01-25T16:35:45.206Z,46.20
2023-01-25T16:38:13.281Z,50.23
2023-01-25T16:40:42.449Z,46.20
2023-01-25T16:43:10.200Z,47.33
2023-01-25T16:45:39.783Z,50.50
2023-01-25T16:48:08.247Z,44.00
2023-01-25T16:50:35.987Z,43.67
2023-01-25T16:53:03.767Z,42.17
2023-01-25T16:55:31.503Z,46.43
2023-01-25T16:58:00.511Z,46.73
2023-01-25T17:00:28.188Z,45.83
2023-01-25T17:02:59.845Z,48.07
2023-01-25T17:05:31.991Z,48.70
2023-01-25T17:07:59.762Z,52.37
2023-01-25T17:10:28.890Z,48.37
2023-01-25T17:12:56.599Z,55.33
2023-01-25T17:15:25.762Z,52.77
2023-01-25T17:17:53.445Z,50.53
2023-01-25T17:20:21.187Z,49.37
2023-01-25T17:22:51.087Z,45.47
2023-01-25T17:25:19.138Z,50.07
2023-01-25T17:27:47.024Z,48.57
2023-01-25T17:30:15.510Z,50.63
2023-01-25T17:32:44.753Z,53.13
2023-01-25T17:35:12.507Z,56.10
2023-01-25T17:37:41.116Z,57.50
2023-01-25T17:40:11.285Z,52.00
2023-01-25T17:42:39.319Z,54.07
2023-01-25T17:45:08.620Z,53.77
2023-01-25T17:47:36.658Z,55.93
2023-01-25T17:50:06.813Z,53.50
2023-01-25T17:52:34.671Z,57.90
2023-01-25T17:55:02.513Z,54.47
2023-01-25T17:57:31.413Z,52.63
2023-01-25T18:00:00.711Z,51.80
2023-01-25T18:02:28.382Z,49.43
2023-01-25T18:04:57.779Z,53.80
2023-01-25T18:07:26.825Z,45.67
2023-01-25T18:09:54.486Z,46.30
2023-01-25T18:12:22.185Z,50.53
2023-01-25T18:14:49.858Z,48.67
2023-01-25T18:17:18.607Z,49.70
2023-01-25T18:19:46.688Z,43.30
2023-01-25T18:22:14.666Z,46.30
2023-01-25T18:24:44.737Z,45.93
2023-01-25T18:27:19.273Z,41.23
2023-01-25T18:29:50.715Z,40.23
2023-01-25T18:32:18.500Z,44.20
2023-01-25T18:34:46.808Z,39.23
2023-01-25T18:37:21.778Z,38.63
2023-01-25T18:39:52.381Z,40.37
2023-01-25T18:42:21.546Z,39.07
2023-01-25T18:44:49.328Z,38.23
2023-01-25T18:47:18.563Z,36.03
2023-01-25T18:49:46.750Z,38.10
2023-01-25T18:52:16.035Z,37.43
2023-01-25T18:54:44.054Z,34.33
2023-01-25T18:57:13.797Z,33.43
2023-01-25T18:59:42.217Z,35.23
2023-01-25T19:02:12.658Z,34.73
2023-01-25T19:04:40.570Z,28.17
2023-01-25T19:07:08.605Z,28.43
2023-01-25T19:09:36.388Z,31.03
2023-01-25T19:12:04.656Z,28.33
2023-01-25T19:14:33.752Z,31.13
2023-01-25T19:17:01.806Z,26.00
2023-01-25T19:19:33.823Z,26.70
2023-01-25T19:22:02.298Z,25.97
2023-01-25T19:24:31.076Z,23.47
2023-01-25T19:26:59.017Z,26.27
2023-01-25T19:29:26.846Z,22.73
2023-01-25T19:31:56.173Z,22.33
2023-01-25T19:34:24.115Z,20.70
2023-01-25T19:36:53.809Z,22.77
2023-01-25T19:39:21.784Z,20.27
2023-01-25T19:41:52.823Z,22.37
2023-01-25T19:44:20.720Z,23.90
2023-01-25T19:46:48.620Z,25.97
2023-01-25T19:49:18.172Z,26.57
2023-01-25T19:51:52.774Z,28.00
2023-01-25T19:54:21.565Z,26.40
2023-01-25T19:56:50.076Z,26.30
2023-01-25T19:59:19.945Z,25.30
2023-01-25T20:01:48.103Z,25.80
2023-01-25T20:04:20.621Z,27.07
2023-01-25T20:06:48.925Z,21.87
2023-01-25T20:09:18.730Z,22.17
2023-01-25T20:11:47.190Z,23.60
2023-01-25T20:14:15.394Z,20.87
2023-01-25T20:16:43.642Z,21.30
2023-01-25T20:19:12.516Z,20.10
2023-01-25T20:21:42.027Z,20.33
2023-01-25T20:24:10.821Z,19.47
2023-01-25T20:26:42.665Z,21.10
2023-01-25T20:29:12.221Z,21.30
2023-01-25T20:31:41.950Z,21.23
2023-01-25T20:34:12.726Z,19.53
2023-01-25T20:36:42.462Z,19.37
2023-01-25T20:39:12.959Z,18.27
2023-01-25T20:41:40.765Z,18.63
2023-01-25T20:44:09.989Z,20.30
2023-01-25T20:46:38.849Z,18.53
2023-01-25T20:49:07.620Z,21.30
2023-01-25T20:51:35.473Z,17.77
2023-01-25T20:54:04.749Z,20.83
2023-01-25T20:56:32.705Z,22.13
2023-01-25T20:59:00.428Z,23.60
2023-01-25T21:01:30.468Z,18.23
2023-01-25T21:03:59.140Z,18.73
2023-01-25T21:06:28.721Z,19.73
2023-01-25T21:08:56.450Z,22.73
2023-01-25T21:11:25.975Z,17.00
2023-01-25T21:13:54.900Z,15.87
2023-01-25T21:16:23.858Z,22.57
2023-01-25T21:18:54.506Z,21.30
2023-01-25T21:21:25.661Z,22.20
2023-01-25T21:23:54.577Z,19.97
2023-01-25T21:26:26.512Z,22.40
2023-01-25T21:28:55.552Z,25.43
2023-01-25T21:31:25.436Z,19.67
2023-01-25T21:33:53.591Z,21.77
2023-01-25T21:36:21.933Z,20.30
2023-01-25T21:38:51.370Z,21.97
2023-01-25T21:41:20.773Z,24.63
2023-01-25T21:44:07.753Z,22.63
2023-01-25T21:46:36.165Z,25.37
2023-01-25T21:49:23.602Z,29.67
2023-01-25T21:51:53.374Z,45.73
2023-01-25T21:54:22.890Z,50.20
2023-01-25T21:56:52.402Z,45.97
2023-01-25T21:59:21.963Z,48.40
2023-01-25T22:01:50.535Z,47.43
2023-01-25T22:04:19.894Z,45.00
2023-01-25T22:06:48.604Z,43.23
2023-01-25T22:09:16.600Z,41.83
2023-01-25T22:11:45.831Z,34.60
2023-01-25T22:14:13.629Z,33.47
2023-01-25T22:16:42.842Z,38.87
2023-01-25T22:19:10.623Z,40.67
2023-01-25T22:21:38.545Z,43.30
2023-01-25T22:24:07.753Z,46.03
2023-01-25T22:26:47.514Z,49.10
2023-01-25T22:29:15.962Z,44.17
2023-01-25T22:31:45.122Z,45.77
2023-01-25T22:34:12.871Z,44.63
2023-01-25T22:36:40.554Z,47.17
2023-01-25T22:39:08.394Z,43.10
2023-01-25T22:41:38.349Z,44.83
2023-01-25T22:44:06.192Z,45.40
2023-01-25T22:46:34.597Z,51.00
2023-01-25T22:49:04.733Z,49.70
2023-01-25T22:51:32.817Z,54.43
2023-01-25T22:54:00.740Z,57.87
2023-01-25T22:56:31.728Z,51.10
2023-01-25T22:59:00.198Z,52.13
2023-01-25T23:01:29.580Z,58.00
2023-01-25T23:03:57.360Z,55.27
2023-01-25T23:06:28.258Z,50.60
2023-01-25T23:08:57.000Z,60.77
2023-01-25T23:11:25.847Z,59.00
2023-01-25T23:14:07.920Z,60.53
2023-01-25T23:16:36.390Z,58.50
2023-01-25T23:19:05.031Z,64.53
2023-01-25T23:21:35.727Z,61.10
2023-01-25T23:24:04.233Z,61.30
2023-01-25T23:26:37.499Z,59.07
2023-01-25T23:29:07.482Z,59.83
2023-01-25T23:31:35.271Z,63.73
2023-01-25T23:34:05.317Z,63.27
2023-01-25T23:36:35.704Z,59.23
2023-01-25T23:39:04.255Z,60.50
2023-01-25T23:41:32.567Z,58.70
2023-01-25T23:44:00.844Z,60.20
2023-01-25T23:46:29.117Z,59.63
2023-01-25T23:48:56.880Z,59.27
2023-01-25T23:51:24.614Z,63.00
2023-01-25T23:53:55.707Z,64.80
2023-01-25T23:56:23.465Z,61.10
2023-01-25T23:58:51.573Z,63.63
